Tiempo atmosférico en la estación meteorológica de La Oliva, Puerto de Corralejo, Las Palmas (6 m.)



Fecha
DESCASC
Temp. máxima en grados centígrados (hora)
DESCASC
Temp. mínima en grados centígrados (hora)
DESCASC
Temp. media en grados centígrados
DESCASC
Racha de viento máxima en m/sg (hora)
DESCASC
Velocidad máxima media en intervalos de 10 minutos(hora)
DESCASC
Precipitaciones diarias en mm
DESCASC
Precipitaciones de 00:00 a 06:00 en mm
DESCASC
Precipitaciones de 06:00 a 12:00 en mm
DESCASC
Precipitaciones de 12:00 a 18:00 en mm
DESCASC
Precipitaciones de 18:00 a 24:00 en mm
DESCASC
31-03-2020 21.2 (16:10) 16.8 (07:50) 19 9.17 (17:00) 5.83 (17:10) 0 0 0 0 0
30-03-2020 21.1 (16:00) 15.9 (07:30) 18.5 10 (16:40) 6.67 (17:50) 0 0 0 0 0
29-03-2020 20.7 (09:30) 16 (00:00) 18.4 8.89 (17:40) 6.11 (17:20) 0 0 0 0 0
28-03-2020 20.6 (15:00) 15.5 (00:00) 18.1 8.33 (18:50) 6.39 (18:40) 0 0 0 0 0
27-03-2020 19.9 (15:20) 16.9 (00:00) 18.4 8.33 (09:30) 5.56 (09:30) 0 0 0 0 0
26-03-2020 19.5 (12:50) 15.1 (00:00) 17.3 8.61 (16:40) 5.56 (12:00) 0 0 0 0 0
25-03-2020 21.4 (17:10) 16.5 (00:00) 18.9 9.72 (19:20) 7.78 (19:20) 0 0 0 0 0
24-03-2020 19.7 (13:50) 16.7 (00:00) 18.2 13.89 (01:40) 10 (11:40) 0 0 0 0 0
23-03-2020 18 (11:10) 14.4 (00:00) 16.2 16.67 (20:00) 10.56 (12:40) 2.8 2.2 0 0 0.6
22-03-2020 19.5 (13:40) 15.3 (22:10) 17.4 13.33 (17:50) 9.17 (04:40) 1.8 0 0 0 1.8
21-03-2020 18.8 (15:20) 16.5 (00:00) 17.6 12.78 (04:10) 10 (09:30) 0 0 0 0 0
20-03-2020 19.7 (13:50) 17.3 (00:00) 18.5 12.5 (01:00) 10.28 (00:10) 0 0 0 0 0
19-03-2020 19.8 (15:00) 16.2 (00:00) 18 15 (00:30) 11.11 (00:30) 3.6 3.6 0 0 0
18-03-2020 18.7 (13:00) 15.4 (00:00) 17.1 18.61 (23:59) 12.78 (02:40) 0.2 0 0.2 0 0
17-03-2020 18.8 (14:40) 15.7 (00:00) 17.2 17.22 (17:00) 11.11 (14:50) 0 0 0 0 0
16-03-2020 20.2 (14:10) 16.8 (00:00) 18.5 15.83 (15:00) 11.94 (21:20) 0 0 0 0 0
15-03-2020 19.9 (11:40) 16.7 (00:00) 18.3 15.56 (21:00) 10.28 (21:00) 0 0 0 0 0
14-03-2020 20.4 (11:50) 17.2 (00:00) 18.8 13.33 (21:00) 8.06 (09:20) 0 0 0 0 0
13-03-2020 22.8 (10:40) 16.9 (06:50) 19.8 10.83 (23:00) 7.78 (19:30) 0 0 0 0 0
12-03-2020 21.7 (15:10) 17.4 (00:00) 19.6 11.39 (01:00) 6.67 (01:00) 0 0 0 0 0
11-03-2020 20 (15:00) 16.1 (00:00) 18.1 10 (03:00) 7.5 (03:30) 0 0 0 0 0
10-03-2020 21.5 (14:20) 15.8 (00:00) 18.7 7.5 (01:00) 5.56 (01:00) 0 0 0 0 0
09-03-2020 21.7 (11:00) 16.9 (00:00) 19.3 14.44 (01:00) 10.83 (01:40) 0 0 0 0 0
08-03-2020 21.5 (16:30) 16 (00:00) 18.8 10.83 (12:20) 8.06 (23:59) 0 0 0 0 0
07-03-2020 21.5 (15:20) 17 (00:00) 19.3 11.94 (16:30) 8.61 (00:20) 0 0 0 0 0
06-03-2020 20 (14:00) 17.1 (00:00) 18.6 17.22 (11:00) 12.78 (09:40) 0.2 0.2 0 0 0
05-03-2020 21.5 (16:00) 16.1 (00:00) 18.8 13.61 (07:00) 10 (21:10) 0 0 0 0 0
04-03-2020 24.5 (12:00) 16.9 (00:00) 20.7 10.28 (20:00) 7.5 (20:10) 0 0 0 0 0
03-03-2020 22.5 (15:00) 16.4 (00:00) 19.4 11.94 (23:00) 8.89 (22:40) 0 0 0 0 0

Gráficas

Temp. máximas Temp. mínimas Temp. medias Precipitaciones Rachas de viento máximas Velocidades máximas media en intervalos de 10 minutos

Datos horarios

Fecha y hora oficial Temperatura (ºC) Velocidad del viento (km/h) Dirección del viento Racha (km/h) Dirección de racha Precipitación (mm) Presión (hPa) Tendencia (hPa) Humedad (%)
2020-04-01 23:00:00 18.5 12 Norte 16 Norte 0 -- -- 64
2020-04-01 22:00:00 18.7 8 Norte 16 Este 0 -- -- 67
2020-04-01 21:00:00 18.8 12 Este 18 Este 0 -- -- 65
2020-04-01 20:00:00 19.1 12 Nordeste 19 Nordeste 0 -- -- 63
2020-04-01 19:00:00 19.8 13 Nordeste 19 Nordeste 0 -- -- 60
2020-04-01 18:00:00 20.7 12 Nordeste 27 Norte 0 -- -- 59
2020-04-01 17:00:00 20.6 22 Norte 29 Noroeste 0 -- -- 59
2020-04-01 16:00:00 20.6 23 Norte 34 Norte 0 -- -- 56
2020-04-01 15:00:00 20.8 17 Noroeste 23 Noroeste 0 -- -- 55
2020-04-01 14:00:00 20.4 12 Norte 15 Norte 0 -- -- 54
2020-04-01 13:00:00 20.2 8 Este 12 Este 0 -- -- 56
2020-04-01 12:00:00 19.7 10 Sudeste 14 Sudeste 0 -- -- 60
2020-04-01 11:00:00 19.7 10 Sudeste 14 Sudeste 0 -- -- 61
2020-04-01 10:00:00 19.4 8 Sudeste 13 Este 0 -- -- 63
2020-04-01 09:00:00 18.7 9 Norte 17 Norte 0 -- -- 74
2020-04-01 08:00:00 17.8 12 Norte 16 Norte 0 -- -- 81
2020-04-01 07:00:00 17.5 8 Norte 12 Norte 0 -- -- 82
2020-04-01 06:00:00 17.7 9 Norte 13 Norte 0 -- -- 78
2020-04-01 05:00:00 17.8 10 Norte 14 Norte 0 -- -- 78
2020-04-01 04:00:00 17.8 8 Norte 10 Nordeste 0 -- -- 79
2020-04-01 03:00:00 18.2 8 Norte 13 Norte 0 -- -- 77
2020-04-01 02:00:00 18.3 10 Norte 14 Norte 0 -- -- 72
2020-04-01 01:00:00 18.5 9 Noroeste 19 Noroeste 0 -- -- 69
2020-04-01 00:00:00 18.6 10 Noroeste 15 Noroeste 0 -- -- 69
2020-03-31 23:00:00 18.6 9 Noroeste 15 Oeste 0 -- -- 68
2020-03-31 22:00:00 18.7 11 Noroeste 19 Oeste 0 -- -- 68
2020-03-31 21:00:00 19 11 Noroeste 23 Noroeste 0 -- -- 68
2020-03-31 20:00:00 19.4 14 Noroeste 28 Oeste 0 -- -- 67
2020-03-31 19:00:00 20.2 15 Noroeste 25 Noroeste 0 -- -- 60
2020-03-31 18:00:00 20.4 19 Oeste 29 Oeste 0 -- -- 58
2020-03-31 17:00:00 21 17 Oeste 33 Noroeste 0 -- -- 56
2020-03-31 16:00:00 21.1 18 Oeste 31 Noroeste 0 -- -- 47
2020-03-31 15:00:00 20.4 20 Oeste 32 Oeste 0 -- -- 54
2020-03-31 14:00:00 20.8 18 Noroeste 29 Noroeste 0 -- -- 60
2020-03-31 13:00:00 20.9 16 Noroeste 27 Noroeste 0 -- -- 61
2020-03-31 12:00:00 20.2 17 Noroeste 26 Noroeste 0 -- -- 64
2020-03-31 11:00:00 19.9 15 Noroeste 23 Oeste 0 -- -- 66
2020-03-31 10:00:00 20 12 Oeste 21 Oeste 0 -- -- 75
2020-03-31 09:00:00 19.4 7 Oeste 12 Oeste 0 -- -- 82
2020-03-31 08:00:00 16.8 7 Sudoeste 16 Oeste 0 -- -- 87
2020-03-31 07:00:00 17.1 9 Sudoeste 15 Oeste 0 -- -- 88
2020-03-31 06:00:00 17.5 10 Oeste 16 Sudoeste 0 -- -- 87
2020-03-31 05:00:00 17.6 12 Oeste 19 Oeste 0 -- -- 87
2020-03-31 04:00:00 17.8 10 Oeste 18 Sudoeste 0 -- -- 90
2020-03-31 03:00:00 17.7 9 Oeste 18 Sudoeste 0 -- -- 89
2020-03-31 02:00:00 17.8 10 Oeste 17 Sudoeste 0 -- -- 87
2020-03-31 01:00:00 18.1 9 Sudoeste 17 Oeste 0 -- -- 82
2020-03-31 00:00:00 18.1 8 Sudoeste 19 Sudoeste 0 -- -- 75
2020-03-30 23:00:00 18.7 12 Sudoeste 27 Oeste 0 -- -- 70
2020-03-30 22:00:00 18.9 17 Oeste 34 Oeste 0 -- -- 68
2020-03-30 21:00:00 18.8 17 Oeste 32 Oeste 0 -- -- 66
2020-03-30 20:00:00 19 20 Oeste 33 Oeste 0 -- -- 65
2020-03-30 19:00:00 19.7 22 Oeste 33 Oeste 0 -- -- 59
2020-03-30 18:00:00 20.2 22 Oeste 36 Oeste 0 -- -- 58
2020-03-30 17:00:00 21.1 21 Oeste 36 Oeste 0 -- -- 51
2020-03-30 16:00:00 21.1 19 Oeste 34 Oeste 0 -- -- 57
2020-03-30 15:00:00 20.4 17 Oeste 32 Oeste 0 -- -- 57
2020-03-30 14:00:00 20.2 21 Oeste 35 Oeste 0 -- -- 54
2020-03-30 13:00:00 19.8 19 Oeste 30 Oeste 0 -- -- 55
2020-03-30 12:00:00 19.3 18 Oeste 28 Oeste 0 -- -- 58
2020-03-30 11:00:00 19.3 14 Oeste 25 Oeste 0 -- -- 58
2020-03-30 10:00:00 19 11 Oeste 18 Sudoeste 0 -- -- 61
2020-03-30 09:00:00 19 4 Sudoeste 6 Sudoeste 0 -- -- 69
2020-03-30 08:00:00 16.2 6 Sudoeste 9 Sudoeste 0 -- -- 76
2020-03-30 07:00:00 16 6 Sur 9 Sur 0 -- -- 71
2020-03-30 06:00:00 16.1 5 Sur 6 Sudoeste 0 -- -- 69
2020-03-30 05:00:00 16.6 5 Sudoeste 9 Sudoeste 0 -- -- 67
2020-03-30 04:00:00 16.6 3 Sudoeste 7 Sur 0 -- -- 67
2020-03-30 03:00:00 16.8 4 Sudoeste 6 Oeste 0 -- -- 64
2020-03-30 02:00:00 17.3 4 Noroeste 9 Norte 0 -- -- 62
2020-03-30 01:00:00 17.5 5 Norte 10 Norte 0 -- -- 62
2020-03-30 00:00:00 17.6 6 Norte 12 Norte 0 -- -- 60
2020-03-29 23:00:00 17.8 8 Noroeste 14 Norte 0 -- -- 58
2020-03-29 22:00:00 18 9 Noroeste 14 Noroeste 0 -- -- 57
2020-03-29 21:00:00 18.1 10 Noroeste 18 Noroeste 0 -- -- 55
2020-03-29 20:00:00 18.7 11 Noroeste 23 Noroeste 0 -- -- 55
2020-03-29 19:00:00 19.5 15 Noroeste 27 Noroeste 0 -- -- 52
2020-03-29 18:00:00 19.6 18 Noroeste 32 Oeste 0 -- -- 52
2020-03-29 17:00:00 19.8 19 Noroeste 28 Noroeste 0 -- -- 53
2020-03-29 16:00:00 19.4 20 Noroeste 28 Noroeste 0 -- -- 54
2020-03-29 15:00:00 19.5 19 Noroeste 28 Noroeste 0 -- -- 54
2020-03-29 14:00:00 19.6 16 Noroeste 23 Noroeste 0 -- -- 51
2020-03-29 13:00:00 19.7 10 Norte 15 Norte 0 -- -- 55
2020-03-29 12:00:00 19.6 5 Norte 8 Nordeste 0 -- -- 55
2020-03-29 11:00:00 19.6 4 Norte 9 Norte 0 -- -- 58
2020-03-29 10:00:00 19.5 4 Norte 8 Nordeste 0 -- -- 58
2020-03-29 09:00:00 19 3 Sur 5 Sudoeste 0 -- -- 69
2020-03-29 08:00:00 16.2 4 Sudoeste 10 Nordeste 0 -- -- 77
2020-03-29 07:00:00 16 2 Sur 10 Nordeste 0 -- -- 77
2020-03-29 06:00:00 17 5 Nordeste 9 Nordeste 0 -- -- 72
2020-03-29 05:00:00 17.1 5 Nordeste 9 Este 0 -- -- 72
2020-03-29 04:00:00 17.1 4 Nordeste 8 Nordeste 0 -- -- 70
2020-03-29 00:00:00 17.6 9 Norte 15 Norte 0 -- -- 69
2020-03-28 23:00:00 17.8 13 Norte 21 Norte 0 -- -- 68
2020-03-28 22:00:00 18 18 Norte 23 Norte 0 -- -- 68
2020-03-28 21:00:00 18.3 16 Norte 26 Noroeste 0 -- -- 68
2020-03-28 20:00:00 18.4 19 Norte 27 Norte 0 -- -- 66
2020-03-28 19:00:00 18.5 13 Norte 30 Norte 0 -- -- 65
2020-03-28 18:00:00 19.3 20 Norte 24 Norte 0 -- -- 62
2020-03-28 17:00:00 20 8 Norte 13 Noroeste 0 -- -- 58
2020-03-28 16:00:00 19.8 11 Norte 22 Noroeste 0 -- -- 59
2020-03-28 15:00:00 20.6 16 Norte 24 Noroeste 0 -- -- 57
2020-03-28 14:00:00 20 18 Noroeste 26 Noroeste 0 -- -- 59
2020-03-28 13:00:00 19.3 17 Noroeste 26 Noroeste 0 -- -- 60
2020-03-28 12:00:00 19.4 16 Noroeste 22 Noroeste 0 -- -- 61
2020-03-28 11:00:00 19 11 Noroeste 16 Noroeste 0 -- -- 62
2020-03-28 10:00:00 18.9 10 Noroeste 15 Oeste 0 -- -- 65
2020-03-28 09:00:00 18.5 8 Noroeste 12 Noroeste 0 -- -- 67
2020-03-28 08:00:00 17 11 Sudoeste 18 Sudoeste 0 -- -- 86
2020-03-28 07:00:00 15.5 7 Oeste 13 Sudoeste 0 -- -- 85
2020-03-28 06:00:00 15.7 10 Sudoeste 14 Sudoeste 0 -- -- 85
2020-03-28 05:00:00 16 6 Oeste 11 Norte 0 -- -- 81
2020-03-28 04:00:00 16.6 8 Noroeste 13 Noroeste 0 -- -- 74
2020-03-28 03:00:00 16.4 4 Oeste 7 Oeste 0 -- -- 72
2020-03-28 02:00:00 16.5 6 Oeste 9 Oeste 0 -- -- 70
2020-03-28 01:00:00 16.7 5 Oeste 7 Oeste 0 -- -- 70
2020-03-28 00:00:00 17 5 Oeste 11 Noroeste 0 -- -- 68
2020-03-27 23:00:00 17.5 5 Noroeste 10 Noroeste 0 -- -- 65
2020-03-27 22:00:00 17.5 5 Oeste 12 Noroeste 0 -- -- 63
2020-03-27 21:00:00 17.6 8 Noroeste 12 Noroeste 0 -- -- 63
2020-03-27 20:00:00 17.7 9 Noroeste 15 Noroeste 0 -- -- 62
2020-03-27 19:00:00 18.2 10 Oeste 24 Noroeste 0 -- -- 61
2020-03-27 18:00:00 18.4 13 Noroeste 24 Noroeste 0 -- -- 61
2020-03-27 17:00:00 19.3 14 Noroeste 24 Oeste 0 -- -- 55
2020-03-27 16:00:00 18.8 15 Noroeste 27 Noroeste 0 -- -- 57
2020-03-27 15:00:00 19.7 18 Noroeste 27 Noroeste 0 -- -- 53
2020-03-27 14:00:00 19.5 17 Noroeste 27 Noroeste 0 -- -- 55
2020-03-27 13:00:00 19.2 17 Noroeste 29 Oeste 0 -- -- 54
2020-03-27 12:00:00 19.3 18 Noroeste 28 Noroeste 0 -- -- 54
2020-03-27 11:00:00 19.1 17 Noroeste 26 Noroeste 0 -- -- 56
2020-03-27 10:00:00 18.9 16 Noroeste 30 Oeste 0 -- -- 56
2020-03-27 09:00:00 18.3 16 Noroeste 25 Noroeste 0 -- -- 58
2020-03-27 08:00:00 17.6 17 Noroeste 26 Noroeste 0 -- -- 64
2020-03-27 07:00:00 17 15 Noroeste 24 Noroeste 0 -- -- 64
2020-03-27 06:00:00 17 14 Noroeste 24 Noroeste 0 -- -- 65
2020-03-27 05:00:00 17.2 13 Noroeste 23 Noroeste 0 -- -- 67
2020-03-27 04:00:00 17.2 14 Noroeste 25 Noroeste 0 -- -- 68
2020-03-27 03:00:00 17.3 13 Noroeste 18 Noroeste 0 -- -- 69
2020-03-27 02:00:00 17.4 12 Noroeste 18 Noroeste 0 -- -- 69
2020-03-27 01:00:00 17.4 12 Noroeste 17 Norte 0 -- -- 70
2020-03-27 00:00:00 17.6 14 Norte 21 Norte 0 -- -- 69
2020-03-26 23:00:00 17.5 13 Norte 22 Noroeste 0 -- -- 68
2020-03-26 22:00:00 17.5 15 Noroeste 24 Norte 0 -- -- 66
2020-03-26 21:00:00 17.7 17 Noroeste 30 Noroeste 0 -- -- 62
2020-03-26 20:00:00 17.9 17 Noroeste 26 Noroeste 0 -- -- 60
2020-03-26 19:00:00 18 16 Noroeste 24 Noroeste 0 -- -- 59
2020-03-26 18:00:00 18.7 17 Noroeste 28 Noroeste 0 -- -- 53
2020-03-26 17:00:00 18.9 18 Noroeste 31 Oeste 0 -- -- 56
2020-03-26 16:00:00 19.1 18 Noroeste 28 Oeste 0 -- -- 52
2020-03-26 15:00:00 19.4 18 Noroeste 24 Noroeste 0 -- -- 51
2020-03-26 14:00:00 19.3 18 Noroeste 27 Noroeste 0 -- -- 50
2020-03-26 13:00:00 19.5 18 Noroeste 27 Noroeste 0 -- -- 52
2020-03-26 12:00:00 19.2 20 Noroeste 29 Noroeste 0 -- -- 54
2020-03-26 11:00:00 19 18 Noroeste 25 Noroeste 0 -- -- 55
2020-03-26 10:00:00 18.9 15 Norte 21 Noroeste 0 -- -- 57
2020-03-26 09:00:00 18.2 11 Norte 17 Norte 0 -- -- 62
2020-03-26 08:00:00 17.4 12 Norte 17 Norte 0 -- -- 65
2020-03-26 07:00:00 15.1 5 Oeste 7 Norte 0 -- -- 68
2020-03-26 06:00:00 16.2 7 Norte 14 Norte 0 -- -- 66
2020-03-26 05:00:00 16.4 9 Norte 15 Norte 0 -- -- 65
2020-03-26 04:00:00 16.5 15 Norte 19 Norte 0 -- -- 66
2020-03-26 03:00:00 16.8 15 Norte 19 Norte 0 -- -- 65
2020-03-26 02:00:00 16.9 13 Norte 17 Norte 0 -- -- 63
2020-03-26 01:00:00 17 10 Norte 15 Norte 0 -- -- 62
2020-03-26 00:00:00 17.1 9 Norte 16 Norte 0 -- -- 61
2020-03-25 23:00:00 17.2 13 Norte 22 Norte 0 -- -- 63
2020-03-25 22:00:00 17.4 14 Norte 25 Norte 0 -- -- 63
2020-03-25 21:00:00 17.4 21 Norte 30 Norte 0 -- -- 65
2020-03-25 20:00:00 17.5 23 Norte 35 Norte 0 -- -- 64
2020-03-25 19:00:00 18.1 26 Noroeste 33 Noroeste 0 -- -- 61
2020-03-25 18:00:00 20.5 3 Este 13 Sudeste 0 -- -- 50
2020-03-25 17:00:00 20.9 5 Sudeste 14 Este 0 -- -- 48
2020-03-25 16:00:00 20.6 5 Este 29 Noroeste 0 -- -- 49
2020-03-25 15:00:00 19.9 22 Norte 29 Norte 0 -- -- 56
2020-03-25 14:00:00 19.2 20 Norte 30 Noroeste 0 -- -- 57
2020-03-25 13:00:00 18.8 19 Norte 25 Noroeste 0 -- -- 58
2020-03-25 12:00:00 19.1 18 Noroeste 27 Noroeste 0 -- -- 50
2020-03-25 11:00:00 19.2 19 Noroeste 27 Noroeste 0 -- -- 48
2020-03-25 10:00:00 20 6 Noroeste 12 Noroeste 0 -- -- 47
2020-03-25 09:00:00 20.8 0 Calma 12 Nordeste 0 -- -- 50
2020-03-25 08:00:00 17.7 10 Norte 16 Norte 0 -- -- 63
2020-03-25 07:00:00 16.6 13 Norte 18 Norte 0 -- -- 65
2020-03-25 06:00:00 16.8 16 Norte 26 Norte 0 -- -- 66
2020-03-25 05:00:00 17 23 Norte 30 Norte 0 -- -- 69
2020-03-25 04:00:00 17.3 20 Norte 32 Norte 0 -- -- 68
2020-03-25 03:00:00 17.4 22 Norte 31 Norte 0 -- -- 68
2020-03-25 02:00:00 17.5 21 Norte 30 Noroeste 0 -- -- 67
2020-03-25 01:00:00 17.6 20 Norte 29 Noroeste 0 -- -- 68
2020-03-25 00:00:00 17.6 21 Norte 28 Noroeste 0 -- -- 66
2020-03-24 23:00:00 17.5 22 Noroeste 30 Noroeste 0 -- -- 65
2020-03-24 22:00:00 17.6 19 Noroeste 33 Noroeste 0 -- -- 64
2020-03-24 21:00:00 17.8 26 Noroeste 36 Norte 0 -- -- 62
2020-03-24 20:00:00 17.9 26 Noroeste 37 Noroeste 0 -- -- 59
2020-03-24 19:00:00 18 28 Noroeste 43 Noroeste 0 -- -- 58
2020-03-24 18:00:00 18.6 30 Noroeste 46 Noroeste 0 -- -- 58
2020-03-24 17:00:00 19 29 Noroeste 44 Noroeste 0 -- -- 54
2020-03-24 16:00:00 19.1 28 Noroeste 46 Noroeste 0 -- -- 56
2020-03-24 15:00:00 19.6 26 Noroeste 41 Noroeste 0 -- -- 54
2020-03-24 14:00:00 19.5 27 Noroeste 41 Noroeste 0 -- -- 55
2020-03-24 13:00:00 19.5 31 Noroeste 43 Noroeste 0 -- -- 56
2020-03-24 12:00:00 19.4 30 Noroeste 47 Noroeste 0 -- -- 49
2020-03-24 11:00:00 19 33 Noroeste 46 Noroeste 0 -- -- 61
2020-03-24 10:00:00 18.4 30 Noroeste 46 Noroeste 0 -- -- 68
2020-03-24 09:00:00 18.2 28 Norte 39 Noroeste 0 -- -- 68
2020-03-24 08:00:00 17.1 28 Noroeste 42 Noroeste 0 -- -- 68
2020-03-24 07:00:00 17.1 27 Noroeste 40 Noroeste 0 -- -- 67
2020-03-24 06:00:00 17.1 27 Noroeste 41 Noroeste 0 -- -- 64
2020-03-24 05:00:00 17.2 31 Noroeste 49 Norte 0 -- -- 66
2020-03-24 04:00:00 17.1 29 Noroeste 48 Noroeste 0 -- -- 68
2020-03-24 03:00:00 17 24 Norte 50 Noroeste 0 -- -- 74
2020-03-24 02:00:00 17.2 30 Norte 50 Norte 0 -- -- 72
2020-03-24 01:00:00 17.1 27 Noroeste 47 Noroeste 0 -- -- 71
2020-03-24 00:00:00 17.5 30 Noroeste 41 Norte 0 -- -- 70
2020-03-23 23:00:00 17.3 31 Norte 47 Noroeste 0 -- -- 69
2020-03-23 22:00:00 17.4 28 Norte 53 Norte 0 -- -- 70
2020-03-23 21:00:00 17.4 35 Norte 51 Noroeste 0 -- -- 70
2020-03-23 20:00:00 17.3 36 Norte 60 Norte 0.6 -- -- 70
2020-03-23 19:00:00 17.6 32 Noroeste 50 Noroeste 0 -- -- 68
2020-03-23 18:00:00 17.9 29 Noroeste 47 Noroeste 0 -- -- 67
2020-03-23 17:00:00 17.9 29 Norte 45 Norte 0 -- -- 68
2020-03-23 16:00:00 17.8 30 Norte 42 Norte 0 -- -- 65
2020-03-23 15:00:00 17.6 33 Norte 45 Norte 0 -- -- 62
2020-03-23 14:00:00 17.8 28 Norte 44 Noroeste 0 -- -- 61
2020-03-23 13:00:00 16.7 35 Norte 50 Norte 0 -- -- 70
2020-03-23 12:00:00 16.6 31 Norte 51 Noroeste 0 -- -- 66
2020-03-23 11:00:00 17.7 24 Norte 37 Noroeste 0 -- -- 58
2020-03-23 10:00:00 17.3 23 Norte 31 Norte 0 -- -- 62
2020-03-23 09:00:00 16.4 14 Norte 24 Noroeste 0 -- -- 66
2020-03-23 08:00:00 14.6 14 Norte 32 Norte 0 -- -- 71
2020-03-23 07:00:00 14.4 5 Oeste 20 Oeste 0 -- -- 70
2020-03-23 06:00:00 14.7 14 Oeste 29 Noroeste 0 -- -- 67
2020-03-23 05:00:00 15.5 19 Noroeste 32 Noroeste 0 -- -- 69
2020-03-23 04:00:00 14.5 19 Oeste 48 Oeste 0 -- -- 72
2020-03-23 03:00:00 15.6 22 Oeste 36 Oeste 0 -- -- 66
2020-03-23 02:00:00 15.9 22 Oeste 35 Oeste 0 -- -- 77
2020-03-23 01:00:00 15.5 18 Oeste 30 Oeste 2.2 -- -- 86
2020-03-23 00:00:00 15.8 12 Oeste 29 Oeste 0 -- -- 83
2020-03-22 23:00:00 15.6 16 Oeste 37 Sudoeste 0.2 -- -- 87
2020-03-22 22:00:00 15.4 14 Sudoeste 27 Sudoeste 0.2 -- -- 91
2020-03-22 21:00:00 15.6 15 Sudoeste 26 Oeste 1.2 -- -- 89
2020-03-22 20:00:00 16.6 18 Oeste 30 Oeste 0 -- -- 80
2020-03-22 19:00:00 16.2 16 Oeste 40 Oeste 0.2 -- -- 87
2020-03-22 18:00:00 17.2 27 Oeste 48 Oeste 0 -- -- 67
2020-03-22 17:00:00 19.3 24 Oeste 40 Oeste 0 -- -- 49
2020-03-22 16:00:00 19.5 22 Oeste 37 Oeste 0 -- -- 47
2020-03-22 15:00:00 19.3 22 Noroeste 35 Noroeste 0 -- -- 44
2020-03-22 14:00:00 19 24 Oeste 35 Noroeste 0 -- -- 44
2020-03-22 13:00:00 19.1 18 Oeste 28 Noroeste 0 -- -- 48
2020-03-22 12:00:00 18.7 17 Noroeste 28 Oeste 0 -- -- 46
2020-03-22 11:00:00 18.5 15 Noroeste 25 Noroeste 0 -- -- 50
2020-03-22 10:00:00 18 14 Noroeste 27 Noroeste 0 -- -- 51
2020-03-22 09:00:00 17.2 17 Noroeste 30 Noroeste 0 -- -- 53
2020-03-22 08:00:00 16.6 16 Noroeste 35 Noroeste 0 -- -- 60
2020-03-22 07:00:00 16.5 24 Noroeste 32 Noroeste 0 -- -- 51
2020-03-22 06:00:00 16.5 23 Noroeste 39 Noroeste 0 -- -- 53
2020-03-22 05:00:00 16.6 25 Noroeste 46 Noroeste 0 -- -- 48
2020-03-22 04:00:00 16.5 23 Norte 34 Norte 0 -- -- 57
2020-03-22 03:00:00 16.5 24 Noroeste 37 Norte 0 -- -- 53
2020-03-22 02:00:00 16.7 26 Noroeste 35 Noroeste 0 -- -- 52
2020-03-22 01:00:00 16.7 26 Norte 41 Norte 0 -- -- 55
2020-03-22 00:00:00 16.8 31 Norte 42 Norte 0 -- -- 60
2020-03-21 23:00:00 17.1 26 Norte 40 Norte 0 -- -- 57
2020-03-21 22:00:00 16.9 30 Norte 41 Norte 0 -- -- 52
2020-03-21 21:00:00 16.9 29 Norte 42 Norte 0 -- -- 52
2020-03-21 20:00:00 17.1 30 Norte 41 Norte 0 -- -- 55
2020-03-21 19:00:00 17.1 27 Norte 39 Norte 0 -- -- 54
2020-03-21 18:00:00 17.4 32 Norte 40 Norte 0 -- -- 53
2020-03-21 17:00:00 18.2 24 Noroeste 36 Noroeste 0 -- -- 50
2020-03-21 16:00:00 18.8 24 Noroeste 36 Norte 0 -- -- 49
2020-03-21 15:00:00 18.7 24 Noroeste 38 Noroeste 0 -- -- 43
2020-03-21 14:00:00 18.7 24 Noroeste 39 Norte 0 -- -- 38
2020-03-21 13:00:00 18.3 31 Norte 46 Noroeste 0 -- -- 45
2020-03-21 12:00:00 17.7 24 Norte 32 Norte 0 -- -- 52
2020-03-21 11:00:00 17.6 27 Norte 37 Noroeste 0 -- -- 46
2020-03-21 10:00:00 17.2 30 Norte 42 Norte 0 -- -- 48
2020-03-21 09:00:00 17 30 Norte 40 Norte 0 -- -- 50
2020-03-21 08:00:00 16.8 27 Norte 33 Norte 0 -- -- 57
2020-03-21 07:00:00 16.6 26 Norte 40 Norte 0 -- -- 49
2020-03-21 06:00:00 16.8 24 Norte 37 Norte 0 -- -- 54
2020-03-21 05:00:00 16.7 26 Norte 46 Norte 0 -- -- 52
2020-03-21 04:00:00 16.6 23 Norte 40 Norte 0 -- -- 52
2020-03-21 03:00:00 17 32 Norte 45 Norte 0 -- -- 55
2020-03-21 02:00:00 17.1 30 Norte 38 Norte 0 -- -- 66
2020-03-21 01:00:00 17.2 23 Norte 34 Norte 0 -- -- 71
2020-03-21 00:00:00 17.5 24 Norte 34 Norte 0 -- -- 75
2020-03-20 23:00:00 17.4 25 Norte 34 Norte 0 -- -- 80
2020-03-20 22:00:00 17.4 24 Norte 40 Norte 0 -- -- 80
2020-03-20 21:00:00 17.5 24 Norte 38 Norte 0 -- -- 79
2020-03-20 20:00:00 17.4 28 Norte 41 Norte 0 -- -- 82
2020-03-20 19:00:00 18 28 Norte 40 Norte 0 -- -- 74
2020-03-20 18:00:00 18.9 27 Noroeste 40 Norte 0 -- -- 62
2020-03-20 17:00:00 19.1 30 Noroeste 37 Noroeste 0 -- -- 58
2020-03-20 16:00:00 19.4 29 Noroeste 40 Norte 0 -- -- 58
2020-03-20 15:00:00 19.6 30 Norte 45 Norte 0 -- -- 61
2020-03-20 14:00:00 19.5 27 Norte 37 Noroeste 0 -- -- 64
2020-03-20 13:00:00 19.3 30 Noroeste 41 Noroeste 0 -- -- 64
2020-03-20 12:00:00 19 28 Noroeste 44 Noroeste 0 -- -- 72
2020-03-20 11:00:00 18.3 31 Noroeste 42 Noroeste 0 -- -- 80
2020-03-20 10:00:00 18.3 32 Norte 42 Norte 0 -- -- 82
2020-03-20 09:00:00 18.3 33 Norte 43 Norte 0 -- -- 84
2020-03-20 08:00:00 18.1 30 Norte 43 Norte 0 -- -- 86
2020-03-20 07:00:00 17.8 30 Norte 42 Norte 0 -- -- 88
2020-03-20 06:00:00 17.9 30 Norte 43 Norte 0 -- -- 87
2020-03-20 05:00:00 18 28 Norte 41 Norte 0 -- -- 88
2020-03-20 04:00:00 17.8 30 Norte 41 Noroeste 0 -- -- 88
2020-03-20 03:00:00 18 29 Norte 40 Norte 0 -- -- 88
2020-03-20 02:00:00 17.9 26 Norte 42 Norte 0 -- -- 89
2020-03-20 01:00:00 18 35 Norte 45 Norte 0 -- -- 87
2020-03-20 00:00:00 18.2 35 Noroeste 49 Noroeste 0 -- -- 86
2020-03-19 23:00:00 18.4 26 Noroeste 37 Noroeste 0 -- -- 86
2020-03-19 22:00:00 18.3 28 Noroeste 41 Norte 0 -- -- 85
2020-03-19 21:00:00 18.3 28 Noroeste 40 Norte 0 -- -- 85
2020-03-19 20:00:00 18.5 27 Norte 46 Noroeste 0 -- -- 85
2020-03-19 19:00:00 18.7 29 Norte 39 Noroeste 0 -- -- 83
2020-03-19 18:00:00 18.9 27 Noroeste 43 Norte 0 -- -- 77
2020-03-19 17:00:00 19.5 26 Norte 36 Noroeste 0 -- -- 69
2020-03-19 16:00:00 19.4 24 Noroeste 34 Noroeste 0 -- -- 64
2020-03-19 15:00:00 19.8 25 Noroeste 32 Noroeste 0 -- -- 59
2020-03-19 14:00:00 19.4 30 Noroeste 41 Noroeste 0 -- -- 58
2020-03-19 13:00:00 19.2 31 Noroeste 41 Norte 0 -- -- 58
2020-03-19 12:00:00 18.9 28 Noroeste 45 Noroeste 0 -- -- 58
2020-03-19 11:00:00 18.6 32 Norte 41 Norte 0 -- -- 61
2020-03-19 10:00:00 18.1 27 Norte 37 Norte 0 -- -- 64
2020-03-19 09:00:00 17.7 20 Norte 32 Norte 0 -- -- 73
2020-03-19 08:00:00 17.2 21 Norte 39 Norte 0 -- -- 80
2020-03-19 07:00:00 17.1 32 Norte 41 Norte 0 -- -- 86
2020-03-19 06:00:00 16.8 22 Noroeste 39 Oeste 0 -- -- 89
2020-03-19 05:00:00 16.2 20 Noroeste 42 Noroeste 3.4 -- -- 83
2020-03-19 04:00:00 17.3 26 Noroeste 44 Noroeste 0.2 -- -- 69
2020-03-19 03:00:00 17.4 28 Noroeste 45 Noroeste 0 -- -- 60
2020-03-19 02:00:00 17.3 33 Noroeste 49 Noroeste 0 -- -- 54
2020-03-19 01:00:00 17.1 33 Noroeste 54 Noroeste 0 -- -- 56
2020-03-19 00:00:00 17.3 37 Noroeste 67 Norte 0 -- -- 60
2020-03-18 23:00:00 17.3 31 Noroeste 50 Noroeste 0 -- -- 64
2020-03-18 22:00:00 17.1 31 Noroeste 52 Noroeste 0 -- -- 65
2020-03-18 21:00:00 17 40 Noroeste 64 Noroeste 0 -- -- 66
2020-03-18 20:00:00 17.9 36 Noroeste 62 Noroeste 0 -- -- 58
2020-03-18 19:00:00 17.8 34 Noroeste 54 Noroeste 0 -- -- 52
2020-03-18 18:00:00 18 31 Noroeste 51 Noroeste 0 -- -- 56
2020-03-18 17:00:00 18 29 Noroeste 49 Noroeste 0 -- -- 60
2020-03-18 16:00:00 18.6 27 Noroeste 42 Noroeste 0 -- -- 51
2020-03-18 15:00:00 18.5 29 Noroeste 45 Noroeste 0 -- -- 48
2020-03-18 14:00:00 17.9 19 Noroeste 50 Noroeste 0 -- -- 63
2020-03-18 13:00:00 18.7 24 Norte 36 Norte 0 -- -- 57
2020-03-18 12:00:00 18.3 26 Noroeste 41 Noroeste 0 -- -- 59
2020-03-18 11:00:00 17.4 24 Noroeste 50 Noroeste 0 -- -- 60
2020-03-18 10:00:00 18.2 27 Noroeste 37 Noroeste 0 -- -- 53
2020-03-18 09:00:00 17.8 30 Norte 42 Norte 0 -- -- 61
2020-03-18 08:00:00 17.3 33 Norte 52 Norte 0.2 -- -- 73
2020-03-18 07:00:00 16.2 36 Norte 59 Norte 0 -- -- 74
2020-03-18 06:00:00 16.4 40 Norte 54 Norte 0 -- -- 70
2020-03-18 05:00:00 16.6 30 Norte 43 Norte 0 -- -- 65
2020-03-18 04:00:00 16.2 34 Noroeste 47 Noroeste 0 -- -- 65
2020-03-18 03:00:00 15.4 17 Noroeste 57 Norte 0 -- -- 66
2020-03-18 02:00:00 16.9 33 Norte 45 Norte 0 -- -- 58
2020-03-18 01:00:00 16.9 29 Norte 45 Norte 0 -- -- 51
2020-03-18 00:00:00 16.5 27 Norte 42 Norte 0 -- -- 56
2020-03-17 23:00:00 16.1 31 Norte 47 Norte 0 -- -- 64
2020-03-17 22:00:00 16.7 31 Norte 50 Norte 0 -- -- 60
2020-03-17 21:00:00 16.9 38 Norte 55 Norte 0 -- -- 64
2020-03-17 20:00:00 16.6 31 Norte 53 Norte 0 -- -- 65
2020-03-17 19:00:00 17.2 33 Norte 52 Norte 0 -- -- 61
2020-03-17 18:00:00 17.6 38 Norte 49 Norte 0 -- -- 58
2020-03-17 17:00:00 17.9 37 Norte 62 Norte 0 -- -- 56
2020-03-17 16:00:00 18.6 33 Norte 44 Norte 0 -- -- 54
2020-03-17 15:00:00 17.6 40 Norte 60 Norte 0 -- -- 57
2020-03-17 14:00:00 17.9 35 Norte 47 Norte 0 -- -- 58
2020-03-17 13:00:00 18.2 27 Norte 48 Norte 0 -- -- 53
2020-03-17 12:00:00 17.3 37 Norte 48 Norte 0 -- -- 60
2020-03-17 11:00:00 16.9 31 Norte 45 Norte 0 -- -- 61
2020-03-17 10:00:00 16.8 30 Norte 50 Norte 0 -- -- 62
2020-03-17 09:00:00 16.9 31 Norte 49 Norte 0 -- -- 57
2020-03-17 08:00:00 16.6 29 Norte 44 Norte 0 -- -- 57
2020-03-17 07:00:00 15.9 21 Norte 50 Norte 0 -- -- 66
2020-03-17 06:00:00 16.5 35 Norte 51 Norte 0 -- -- 62
2020-03-17 05:00:00 16.8 26 Norte 51 Norte 0 -- -- 57
2020-03-17 04:00:00 16.8 31 Norte 48 Norte 0 -- -- 54
2020-03-17 03:00:00 16.5 33 Norte 51 Norte 0 -- -- 60
2020-03-17 02:00:00 16.9 33 Norte 46 Norte 0 -- -- 55
2020-03-17 01:00:00 16.5 31 Norte 53 Norte 0 -- -- 62
2020-03-17 00:00:00 17.2 34 Norte 50 Norte 0 -- -- 56
2020-03-16 23:00:00 17.1 37 Norte 50 Norte 0 -- -- 56
2020-03-16 22:00:00 17.3 31 Norte 55 Norte 0 -- -- 53
2020-03-16 21:00:00 17.5 35 Norte 56 Norte 0 -- -- 63
2020-03-16 20:00:00 17.9 35 Norte 54 Norte 0 -- -- 65
2020-03-16 19:00:00 18 37 Norte 55 Norte 0 -- -- 64
2020-03-16 18:00:00 18.1 31 Norte 51 Noroeste 0 -- -- 66
2020-03-16 17:00:00 19 35 Norte 55 Norte 0 -- -- 63
2020-03-16 16:00:00 19.6 35 Norte 51 Norte 0 -- -- 62
2020-03-16 15:00:00 19.7 38 Norte 57 Norte 0 -- -- 63
2020-03-16 14:00:00 20 34 Norte 47 Norte 0 -- -- 59
2020-03-16 13:00:00 19.6 35 Norte 55 Norte 0 -- -- 61
2020-03-16 12:00:00 19.3 31 Norte 45 Norte 0 -- -- 54
2020-03-16 11:00:00 19.1 32 Norte 51 Norte 0 -- -- 55
2020-03-16 10:00:00 18.4 39 Norte 53 Norte 0 -- -- 61
2020-03-16 09:00:00 17.9 32 Norte 45 Norte 0 -- -- 67
2020-03-16 08:00:00 17.8 34 Norte 53 Norte 0 -- -- 72
2020-03-16 07:00:00 17.6 26 Norte 40 Norte 0 -- -- 72
2020-03-16 06:00:00 17.7 31 Norte 38 Norte 0 -- -- 73
2020-03-16 05:00:00 17.7 31 Norte 42 Norte 0 -- -- 73
2020-03-16 04:00:00 17.7 33 Norte 46 Norte 0 -- -- 72
2020-03-16 03:00:00 17.8 30 Norte 40 Norte 0 -- -- 73
2020-03-16 02:00:00 17.7 28 Norte 45 Norte 0 -- -- 75
2020-03-16 01:00:00 17.9 33 Norte 42 Norte 0 -- -- 73
2020-03-16 00:00:00 18 28 Norte 42 Norte 0 -- -- 73
2020-03-15 23:00:00 18 27 Norte 41 Norte 0 -- -- 73
2020-03-15 22:00:00 17.9 30 Norte 47 Norte 0 -- -- 74
2020-03-15 21:00:00 18 37 Norte 56 Norte 0 -- -- 73
2020-03-15 20:00:00 18.1 27 Norte 40 Noroeste 0 -- -- 71
2020-03-15 19:00:00 18.2 28 Norte 41 Norte 0 -- -- 65
2020-03-15 18:00:00 18.4 26 Noroeste 47 Noroeste 0 -- -- 64
2020-03-15 17:00:00 18.8 29 Noroeste 44 Norte 0 -- -- 58
2020-03-15 16:00:00 19.3 27 Noroeste 42 Noroeste 0 -- -- 54
2020-03-15 15:00:00 19.6 29 Norte 38 Noroeste 0 -- -- 53
2020-03-15 14:00:00 19.4 24 Noroeste 37 Noroeste 0 -- -- 57
2020-03-15 13:00:00 19.6 26 Noroeste 38 Norte 0 -- -- 53
2020-03-15 12:00:00 19.6 24 Norte 33 Norte 0 -- -- 57
2020-03-15 11:00:00 18.7 22 Norte 35 Norte 0 -- -- 65
2020-03-15 10:00:00 17.6 31 Norte 41 Norte 0 -- -- 70
2020-03-15 09:00:00 17.8 21 Norte 28 Norte 0 -- -- 63
2020-03-15 08:00:00 17.4 21 Norte 33 Norte 0 -- -- 67
2020-03-15 07:00:00 17.4 26 Norte 34 Norte 0 -- -- 67
2020-03-15 06:00:00 17.4 23 Norte 33 Norte 0 -- -- 72
2020-03-15 05:00:00 17.4 19 Norte 26 Norte 0 -- -- 72
2020-03-15 04:00:00 17.1 13 Norte 28 Norte 0 -- -- 76
2020-03-15 03:00:00 16.9 11 Norte 18 Norte 0 -- -- 74
2020-03-15 02:00:00 17.1 16 Norte 21 Norte 0 -- -- 74
2020-03-15 01:00:00 17.2 16 Norte 25 Norte 0 -- -- 74
2020-03-15 00:00:00 17.3 21 Norte 29 Norte 0 -- -- 71
2020-03-14 23:00:00 17.5 24 Norte 37 Norte 0 -- -- 71
2020-03-14 22:00:00 17.6 21 Norte 35 Norte 0 -- -- 70
2020-03-14 21:00:00 17.7 28 Norte 48 Norte 0 -- -- 69
2020-03-14 20:00:00 17.7 26 Norte 33 Norte 0 -- -- 67
2020-03-14 19:00:00 18 26 Norte 40 Norte 0 -- -- 67
2020-03-14 18:00:00 18.3 29 Noroeste 46 Noroeste 0 -- -- 65
2020-03-14 17:00:00 19.1 23 Noroeste 32 Noroeste 0 -- -- 59
2020-03-14 16:00:00 19.3 10 Norte 15 Norte 0 -- -- 60
2020-03-14 15:00:00 19 13 Nordeste 21 Nordeste 0 -- -- 63
2020-03-14 14:00:00 19.8 13 Nordeste 37 Norte 0 -- -- 60
2020-03-14 13:00:00 19.4 27 Noroeste 35 Noroeste 0 -- -- 59
2020-03-14 12:00:00 20.2 13 Norte 36 Norte 0 -- -- 55
2020-03-14 11:00:00 19.8 18 Norte 33 Norte 0 -- -- 48
2020-03-14 10:00:00 18.5 25 Norte 35 Norte 0 -- -- 54
2020-03-14 09:00:00 17.9 19 Norte 28 Norte 0 -- -- 65
2020-03-14 08:00:00 17.8 19 Norte 27 Norte 0 -- -- 67
2020-03-14 07:00:00 17.5 24 Norte 30 Norte 0 -- -- 71
2020-03-14 06:00:00 17.6 22 Norte 28 Norte 0 -- -- 68
2020-03-14 05:00:00 17.5 16 Nordeste 22 Norte 0 -- -- 74
2020-03-14 04:00:00 17.6 17 Norte 23 Norte 0 -- -- 74
2020-03-14 03:00:00 17.6 19 Norte 30 Norte 0 -- -- 71
2020-03-14 02:00:00 17.8 17 Nordeste 29 Nordeste 0 -- -- 72
2020-03-14 01:00:00 17.8 19 Nordeste 26 Nordeste 0 -- -- 71
2020-03-14 00:00:00 17.9 20 Nordeste 30 Nordeste 0 -- -- 73
2020-03-13 23:00:00 18.1 25 Nordeste 39 Nordeste 0 -- -- 71
2020-03-13 22:00:00 18.1 24 Nordeste 29 Nordeste 0 -- -- 71
2020-03-13 21:00:00 18.3 25 Nordeste 34 Nordeste 0 -- -- 71
2020-03-13 20:00:00 18.4 26 Norte 33 Norte 0 -- -- 72
2020-03-13 19:00:00 18.7 25 Norte 35 Norte 0 -- -- 74
2020-03-13 18:00:00 19.2 27 Norte 34 Norte 0 -- -- 71
2020-03-13 17:00:00 19.6 8 Este 22 Nordeste 0 -- -- 69
2020-03-13 16:00:00 19.1 16 Nordeste 24 Nordeste 0 -- -- 69
2020-03-13 15:00:00 19.5 16 Nordeste 26 Nordeste 0 -- -- 67
2020-03-13 14:00:00 19.4 21 Este 29 Este 0 -- -- 63
2020-03-13 13:00:00 20.3 22 Nordeste 29 Nordeste 0 -- -- 62
2020-03-13 12:00:00 21.2 15 Este 24 Nordeste 0 -- -- 57
2020-03-13 11:00:00 22.7 3 Nordeste 8 Este 0 -- -- 49
2020-03-13 10:00:00 21.1 2 Oeste 9 Norte 0 -- -- 60
2020-03-13 09:00:00 18.7 7 Norte 12 Norte 0 -- -- 74
2020-03-13 08:00:00 18.2 3 Noroeste 12 Norte 0 -- -- 82
2020-03-13 07:00:00 17.1 8 Norte 17 Nordeste 0 -- -- 86
2020-03-13 06:00:00 17.4 13 Nordeste 19 Nordeste 0 -- -- 86
2020-03-13 05:00:00 17.3 8 Nordeste 22 Nordeste 0 -- -- 86
2020-03-13 04:00:00 17.3 19 Nordeste 28 Nordeste 0 -- -- 89
2020-03-13 03:00:00 17.5 22 Nordeste 32 Nordeste 0 -- -- 89
2020-03-13 02:00:00 17.6 23 Nordeste 30 Nordeste 0 -- -- 89
2020-03-13 01:00:00 17.9 17 Nordeste 22 Nordeste 0 -- -- 91
2020-03-13 00:00:00 17.9 20 Este 30 Nordeste 0 -- -- 92
2020-03-12 23:00:00 18.2 13 Este 17 Este 0 -- -- 92
2020-03-12 22:00:00 18.3 11 Sur 16 Sudoeste 0 -- -- 91
2020-03-12 21:00:00 18.9 10 Sudoeste 22 Nordeste 0 -- -- 90
2020-03-12 20:00:00 18.9 13 Este 26 Este 0 -- -- 90
2020-03-12 19:00:00 19.3 19 Este 26 Este 0 -- -- 88
2020-03-12 18:00:00 20.5 10 Este 18 Nordeste 0 -- -- 84
2020-03-12 17:00:00 20.8 12 Nordeste 21 Nordeste 0 -- -- 77
2020-03-12 16:00:00 21.5 16 Este 23 Este 0 -- -- 71
2020-03-12 15:00:00 21.3 15 Este 22 Este 0 -- -- 81
2020-03-12 14:00:00 20.3 16 Este 23 Sudeste 0 -- -- 86
2020-03-12 13:00:00 20.2 18 Sudeste 25 Este 0 -- -- 83
2020-03-12 12:00:00 20.7 15 Sudeste 18 Sudeste 0 -- -- 76
2020-03-12 11:00:00 20.8 12 Sudeste 15 Sudeste 0 -- -- 66
2020-03-12 10:00:00 20.7 11 Sudeste 14 Sudeste 0 -- -- 69
2020-03-12 09:00:00 20 6 Sudeste 13 Este 0 -- -- 86
2020-03-12 08:00:00 18.4 9 Este 18 Este 0 -- -- 95
2020-03-12 07:00:00 17.7 14 Este 25 Este 0 -- -- 96
2020-03-12 06:00:00 17.8 18 Este 25 Este 0 -- -- 95
2020-03-12 05:00:00 17.9 17 Este 25 Este 0 -- -- 95
2020-03-12 04:00:00 18 20 Este 27 Este 0 -- -- 95
2020-03-12 03:00:00 18 24 Este 36 Este 0 -- -- 96
2020-03-12 02:00:00 18.3 23 Este 33 Este 0 -- -- 97
2020-03-12 01:00:00 18.3 24 Sudeste 41 Sudeste 0 -- -- 96
2020-03-12 00:00:00 18.2 12 Sudeste 20 Este 0 -- -- 96
2020-03-11 23:00:00 18.4 14 Este 18 Este 0 -- -- 96
2020-03-11 22:00:00 18.1 7 Sudeste 11 Sudeste 0 -- -- 94
2020-03-11 21:00:00 18.6 5 Sudeste 8 Sudeste 0 -- -- 94
2020-03-11 20:00:00 18.7 3 Este 9 Nordeste 0 -- -- 92
2020-03-11 19:00:00 18.9 5 Este 9 Este 0 -- -- 91
2020-03-11 18:00:00 19.4 7 Norte 11 Norte 0 -- -- 89
2020-03-11 17:00:00 20 8 Este 13 Este 0 -- -- 87
2020-03-11 16:00:00 19.8 13 Este 23 Este 0 -- -- 85
2020-03-11 15:00:00 20 17 Este 24 Este 0 -- -- 84
2020-03-11 14:00:00 19.6 21 Este 28 Este 0 -- -- 86
2020-03-11 13:00:00 19.4 20 Este 27 Sudeste 0 -- -- 86
2020-03-11 12:00:00 19.6 19 Este 31 Este 0 -- -- 84
2020-03-11 11:00:00 19.2 19 Este 25 Este 0 -- -- 84
2020-03-11 10:00:00 19.3 13 Este 24 Este 0 -- -- 83
2020-03-11 09:00:00 18.3 19 Este 31 Este 0 -- -- 87
2020-03-11 08:00:00 17.5 18 Este 24 Este 0 -- -- 91
2020-03-11 07:00:00 16.9 10 Este 18 Nordeste 0 -- -- 91
2020-03-11 06:00:00 17.1 16 Nordeste 21 Este 0 -- -- 90
2020-03-11 05:00:00 17.1 13 Este 29 Este 0 -- -- 91
2020-03-11 04:00:00 17.3 23 Este 33 Este 0 -- -- 90
2020-03-11 03:00:00 17.3 26 Este 36 Este 0 -- -- 91
2020-03-11 02:00:00 16.1 5 Sudeste 13 Sudeste 0 -- -- 92
2020-03-11 01:00:00 17.4 3 Norte 6 Este 0 -- -- 90
2020-03-11 00:00:00 17.6 5 Este 10 Este 0 -- -- 90
2020-03-10 23:00:00 17.7 7 Nordeste 15 Nordeste 0 -- -- 90
2020-03-10 22:00:00 18 0 Calma 6 Noroeste 0 -- -- 91
2020-03-10 21:00:00 18.7 5 Nordeste 13 Este 0 -- -- 89
2020-03-10 20:00:00 18.8 10 Sudeste 15 Sudeste 0 -- -- 88
2020-03-10 19:00:00 19 9 Este 14 Este 0 -- -- 83
2020-03-10 18:00:00 19.3 10 Nordeste 13 Nordeste 0 -- -- 82
2020-03-10 17:00:00 20.2 8 Nordeste 13 Nordeste 0 -- -- 76
2020-03-10 16:00:00 19.7 10 Nordeste 15 Norte 0 -- -- 77
2020-03-10 15:00:00 19.6 14 Nordeste 19 Nordeste 0 -- -- 75
2020-03-10 14:00:00 20.9 13 Este 20 Este 0 -- -- 69
2020-03-10 13:00:00 20.1 16 Este 23 Sudeste 0 -- -- 74
2020-03-10 12:00:00 20.4 18 Este 26 Este 0 -- -- 66
2020-03-10 11:00:00 20.5 18 Este 24 Este 0 -- -- 68
2020-03-10 10:00:00 20.7 8 Nordeste 20 Este 0 -- -- 62
2020-03-10 09:00:00 19.2 15 Este 22 Este 0 -- -- 73
2020-03-10 08:00:00 18.6 10 Este 18 Este 0 -- -- 79
2020-03-10 07:00:00 15.8 8 Sur 12 Sudeste 0 -- -- 86
2020-03-10 06:00:00 16 5 Sur 13 Sur 0 -- -- 88
2020-03-10 05:00:00 16.1 7 Sur 13 Sudoeste 0 -- -- 87
2020-03-10 04:00:00 16.2 7 Sudeste 12 Sur 0 -- -- 83
2020-03-10 03:00:00 16.9 3 Sur 18 Nordeste 0 -- -- 83
2020-03-10 02:00:00 17.5 14 Nordeste 24 Este 0 -- -- 82
2020-03-10 01:00:00 17.6 20 Este 27 Este 0 -- -- 83
2020-03-10 00:00:00 17.9 14 Este 22 Este 0 -- -- 75
2020-03-09 23:00:00 18.3 13 Este 26 Nordeste 0 -- -- 69
2020-03-09 22:00:00 18.4 19 Nordeste 35 Nordeste 0 -- -- 67
2020-03-09 21:00:00 19.2 27 Nordeste 43 Nordeste 0 -- -- 58
2020-03-09 20:00:00 18.8 24 Nordeste 37 Nordeste 0 -- -- 80
2020-03-09 19:00:00 18.8 24 Nordeste 38 Nordeste 0 -- -- 85
2020-03-09 18:00:00 19.4 28 Este 40 Nordeste 0 -- -- 84
2020-03-09 17:00:00 20.2 29 Este 40 Este 0 -- -- 75
2020-03-09 16:00:00 20.9 26 Este 36 Este 0 -- -- 70
2020-03-09 15:00:00 21.4 24 Este 31 Este 0 -- -- 69
2020-03-09 14:00:00 21.3 19 Este 28 Este 0 -- -- 74
2020-03-09 13:00:00 20.8 18 Este 26 Este 0 -- -- 79
2020-03-09 12:00:00 20.2 19 Este 25 Este 0 -- -- 81
2020-03-09 11:00:00 21.7 11 Este 20 Este 0 -- -- 75
2020-03-09 10:00:00 20.5 13 Este 19 Este 0 -- -- 80
2020-03-09 09:00:00 19.5 12 Este 19 Sudeste 0 -- -- 84
2020-03-09 08:00:00 17.6 8 Sudeste 12 Sudeste 0 -- -- 89
2020-03-09 07:00:00 17 7 Este 13 Este 0 -- -- 92
2020-03-09 06:00:00 17.2 11 Este 21 Este 0 -- -- 93
2020-03-09 05:00:00 17.5 17 Este 30 Este 0 -- -- 92
2020-03-09 04:00:00 17.7 22 Este 36 Este 0 -- -- 90
2020-03-09 03:00:00 17.9 27 Este 39 Este 0 -- -- 89
2020-03-09 02:00:00 18 28 Nordeste 49 Nordeste 0 -- -- 89
2020-03-09 01:00:00 18.1 36 Nordeste 52 Nordeste 0 -- -- 88
2020-03-09 00:00:00 18.3 29 Este 37 Nordeste 0 -- -- 88
2020-03-08 23:00:00 17.9 7 Sur 10 Sudoeste 0 -- -- 89
2020-03-08 22:00:00 18.5 5 Sur 12 Sudeste 0 -- -- 88
2020-03-08 21:00:00 18.6 4 Sur 15 Sur 0 -- -- 88
2020-03-08 20:00:00 19.3 10 Sur 14 Sur 0 -- -- 86
2020-03-08 19:00:00 19.7 8 Sudeste 17 Norte 0 -- -- 80
2020-03-08 18:00:00 20.9 14 Norte 25 Norte 0 -- -- 75
2020-03-08 17:00:00 21.1 13 Noroeste 20 Noroeste 0 -- -- 71
2020-03-08 16:00:00 20.9 12 Norte 19 Norte 0 -- -- 64
2020-03-08 15:00:00 20.9 15 Nordeste 31 Nordeste 0 -- -- 63
2020-03-08 14:00:00 20.2 20 Nordeste 30 Este 0 -- -- 76
2020-03-08 13:00:00 20.3 21 Nordeste 39 Este 0 -- -- 81
2020-03-08 12:00:00 20.2 25 Este 37 Este 0 -- -- 81
2020-03-08 11:00:00 19.9 23 Este 36 Nordeste 0 -- -- 81
2020-03-08 10:00:00 19.8 19 Este 36 Este 0 -- -- 80
2020-03-08 09:00:00 19 22 Nordeste 35 Nordeste 0 -- -- 81
2020-03-08 08:00:00 18 10 Este 16 Este 0 -- -- 89
2020-03-08 07:00:00 16 4 Sur 9 Oeste 0 -- -- 91
2020-03-08 06:00:00 16.4 6 Oeste 9 Sudeste 0 -- -- 90
2020-03-08 05:00:00 17.7 9 Sudeste 20 Este 0 -- -- 87
2020-03-08 04:00:00 17.8 16 Este 22 Este 0 -- -- 88
2020-03-08 03:00:00 17.5 2 Norte 14 Nordeste 0 -- -- 81
2020-03-08 02:00:00 18.4 7 Norte 14 Norte 0 -- -- 76
2020-03-08 01:00:00 18.1 12 Sudeste 22 Este 0 -- -- 82
2020-03-08 00:00:00 18.2 16 Este 21 Este 0 -- -- 77
2020-03-07 23:00:00 18.2 9 Este 17 Este 0 -- -- 76
2020-03-07 22:00:00 18.5 11 Este 15 Nordeste 0 -- -- 70
2020-03-07 21:00:00 18.7 10 Este 14 Este 0 -- -- 68
2020-03-07 20:00:00 19.1 5 Sudeste 12 Sudeste 0 -- -- 67
2020-03-07 19:00:00 20 4 Sudeste 30 Noroeste 0 -- -- 62
2020-03-07 18:00:00 20.4 17 Norte 26 Noroeste 0 -- -- 59
2020-03-07 17:00:00 20.4 15 Norte 43 Noroeste 0 -- -- 61
2020-03-07 16:00:00 20.7 11 Norte 27 Norte 0 -- -- 56
2020-03-07 15:00:00 20.8 9 Norte 21 Nordeste 0 -- -- 58
2020-03-07 14:00:00 20.4 17 Nordeste 36 Nordeste 0 -- -- 58
2020-03-07 13:00:00 19.6 28 Nordeste 35 Nordeste 0 -- -- 61
2020-03-07 12:00:00 19.6 17 Nordeste 27 Nordeste 0 -- -- 59
2020-03-07 11:00:00 18.8 21 Nordeste 32 Nordeste 0 -- -- 60
2020-03-07 10:00:00 18.6 24 Nordeste 34 Norte 0 -- -- 64
2020-03-07 09:00:00 18.4 21 Norte 29 Nordeste 0 -- -- 67
2020-03-07 08:00:00 17.4 19 Norte 31 Norte 0 -- -- 66
2020-03-07 07:00:00 17.2 24 Nordeste 36 Nordeste 0 -- -- 67
2020-03-07 06:00:00 17.2 19 Nordeste 29 Nordeste 0 -- -- 67
2020-03-07 05:00:00 17.3 14 Nordeste 27 Norte 0 -- -- 65
2020-03-07 04:00:00 17.2 19 Nordeste 31 Norte 0 -- -- 64
2020-03-07 03:00:00 17.4 22 Norte 37 Nordeste 0 -- -- 66
2020-03-07 02:00:00 17.3 23 Norte 35 Norte 0 -- -- 64
2020-03-07 01:00:00 17.6 24 Norte 42 Nordeste 0 -- -- 63
2020-03-07 00:00:00 17.6 28 Norte 44 Nordeste 0 -- -- 62
2020-03-06 23:00:00 17.7 27 Nordeste 48 Norte 0 -- -- 64
2020-03-06 22:00:00 17.7 39 Norte 54 Norte 0 -- -- 65
2020-03-06 21:00:00 17.7 40 Norte 59 Norte 0 -- -- 64
2020-03-06 20:00:00 17.8 34 Norte 50 Norte 0 -- -- 60
2020-03-06 19:00:00 18.2 31 Norte 47 Norte 0 -- -- 60
2020-03-06 18:00:00 19 30 Norte 45 Norte 0 -- -- 55
2020-03-06 17:00:00 19.6 30 Norte 40 Nordeste 0 -- -- 53
2020-03-06 16:00:00 19.8 31 Nordeste 45 Norte 0 -- -- 49
2020-03-06 15:00:00 19.5 31 Nordeste 44 Nordeste 0 -- -- 55
2020-03-06 14:00:00 20 25 Norte 46 Nordeste 0 -- -- 54
2020-03-06 13:00:00 19.4 36 Nordeste 49 Norte 0 -- -- 56
2020-03-06 12:00:00 19.1 38 Nordeste 56 Nordeste 0 -- -- 57
2020-03-06 11:00:00 18.3 44 Nordeste 62 Nordeste 0 -- -- 55
2020-03-06 10:00:00 18 35 Norte 57 Norte 0 -- -- 62
2020-03-06 09:00:00 17.5 39 Norte 58 Norte 0 -- -- 64
2020-03-06 08:00:00 17.1 43 Norte 56 Norte 0 -- -- 64
2020-03-06 07:00:00 17.5 29 Norte 45 Nordeste 0 -- -- 68
2020-03-06 06:00:00 17.6 33 Norte 51 Nordeste 0 -- -- 71
2020-03-06 05:00:00 17.8 31 Norte 40 Norte 0 -- -- 84
2020-03-06 04:00:00 17.8 21 Norte 35 Nordeste 0.2 -- -- 89
2020-03-06 03:00:00 17.3 14 Norte 36 Norte 0 -- -- 92
2020-03-06 02:00:00 18.1 26 Nordeste 37 Nordeste 0 -- -- 87
2020-03-06 01:00:00 18.2 27 Norte 38 Norte 0 -- -- 88
2020-03-06 00:00:00 19.2 24 Norte 35 Norte 0 -- -- 76
2020-03-05 23:00:00 19.1 23 Norte 44 Nordeste 0 -- -- 72
2020-03-05 22:00:00 19 28 Norte 44 Norte 0 -- -- 72
2020-03-05 21:00:00 18.9 30 Norte 49 Norte 0 -- -- 72
2020-03-05 20:00:00 18.5 25 Nordeste 39 Nordeste 0 -- -- 70
2020-03-05 19:00:00 18.8 25 Norte 36 Norte 0 -- -- 72
2020-03-05 18:00:00 19.5 22 Norte 35 Norte 0 -- -- 70
2020-03-05 17:00:00 19.8 22 Norte 31 Nordeste 0 -- -- 68
2020-03-05 16:00:00 21.5 2 Este 21 Nordeste 0 -- -- 62
2020-03-05 15:00:00 20.1 13 Nordeste 26 Norte 0 -- -- 67
2020-03-05 14:00:00 20.6 18 Nordeste 32 Este 0 -- -- 66
2020-03-05 13:00:00 19.7 20 Nordeste 29 Nordeste 0 -- -- 70
2020-03-05 12:00:00 19.6 20 Nordeste 28 Nordeste 0 -- -- 70
2020-03-05 11:00:00 19.5 13 Norte 22 Norte 0 -- -- 71
2020-03-05 10:00:00 18.6 20 Nordeste 27 Norte 0 -- -- 81
2020-03-05 09:00:00 17.9 15 Nordeste 28 Norte 0 -- -- 84
2020-03-05 08:00:00 17.5 25 Norte 40 Norte 0 -- -- 87
2020-03-05 07:00:00 17.3 29 Norte 49 Norte 0 -- -- 90
2020-03-05 06:00:00 17.1 23 Norte 30 Noroeste 0 -- -- 91
2020-03-05 05:00:00 16.5 4 Sur 10 Sudeste 0 -- -- 90
2020-03-05 04:00:00 17.2 4 Sudeste 18 Norte 0 -- -- 89
2020-03-05 03:00:00 17.3 7 Oeste 18 Nordeste 0 -- -- 89
2020-03-05 02:00:00 17.8 13 Nordeste 19 Nordeste 0 -- -- 89
2020-03-05 01:00:00 17.7 13 Este 23 Este 0 -- -- 90
2020-03-05 00:00:00 18.2 12 Este 18 Sudeste 0 -- -- 90
2020-03-04 23:00:00 18.4 15 Norte 21 Norte 0 -- -- 90
2020-03-04 22:00:00 18.3 7 Nordeste 23 Nordeste 0 -- -- 91
2020-03-04 21:00:00 18.4 20 Nordeste 33 Este 0 -- -- 91
2020-03-04 20:00:00 18.8 25 Este 37 Este 0 -- -- 89
2020-03-04 19:00:00 19.9 14 Este 21 Este 0 -- -- 78
2020-03-04 18:00:00 21.1 6 Norte 21 Este 0 -- -- 70
2020-03-04 17:00:00 21.9 17 Este 22 Este 0 -- -- 66
2020-03-04 16:00:00 21.8 13 Noroeste 27 Noroeste 0 -- -- 66
2020-03-04 15:00:00 21.8 16 Noroeste 28 Noroeste 0 -- -- 67
2020-03-04 14:00:00 22.1 10 Sudeste 16 Norte 0 -- -- 61
2020-03-04 13:00:00 21.6 9 Norte 20 Noroeste 0 -- -- 63
2020-03-04 12:00:00 24.5 5 Sur 15 Noroeste 0 -- -- 53
2020-03-04 11:00:00 21.3 10 Norte 16 Noroeste 0 -- -- 75
2020-03-04 10:00:00 20.3 11 Norte 17 Norte 0 -- -- 79
2020-03-04 09:00:00 20.1 6 Noroeste 11 Noroeste 0 -- -- 78
2020-03-04 08:00:00 18.8 3 Noroeste 9 Norte 0 -- -- 83
2020-03-04 07:00:00 17.3 2 Sudeste 16 Norte 0 -- -- 87
2020-03-04 06:00:00 17.7 15 Norte 26 Norte 0 -- -- 88
2020-03-04 05:00:00 17.7 11 Norte 21 Norte 0 -- -- 89
2020-03-04 04:00:00 17.6 8 Noroeste 13 Noroeste 0 -- -- 85
2020-03-04 03:00:00 17.5 3 Oeste 11 Este 0 -- -- 75
2020-03-04 02:00:00 17.9 3 Este 14 Nordeste 0 -- -- 77
2020-03-04 01:00:00 18.4 8 Nordeste 20 Nordeste 0 -- -- 79
2020-03-04 00:00:00 18.2 16 Norte 33 Norte 0 -- -- 89
2020-03-03 23:00:00 18.3 27 Norte 43 Norte 0 -- -- 90
2020-03-03 22:00:00 18.5 20 Noroeste 28 Norte 0 -- -- 89
2020-03-03 21:00:00 18.7 22 Norte 27 Norte 0 -- -- 87
2020-03-03 20:00:00 19.8 15 Norte 22 Norte 0 -- -- 77
2020-03-03 19:00:00 19.8 13 Nordeste 23 Nordeste 0 -- -- 75
2020-03-03 18:00:00 20.5 17 Nordeste 23 Este 0 -- -- 70
2020-03-03 17:00:00 20.9 9 Sudeste 21 Noroeste 0 -- -- 68
2020-03-03 16:00:00 21.1 13 Noroeste 23 Noroeste 0 -- -- 66
2020-03-03 15:00:00 22.5 4 Sudeste 10 Nordeste 0 -- -- 63
2020-03-03 14:00:00 21.3 7 Nordeste 12 Nordeste 0 -- -- 68
2020-03-03 13:00:00 20.6 6 Nordeste 15 Norte 0 -- -- 75
2020-03-03 12:00:00 19.8 12 Nordeste 15 Nordeste 0 -- -- 76
2020-03-03 11:00:00 19.9 10 Nordeste 17 Nordeste 0 -- -- 77
2020-03-03 10:00:00 18.9 11 Nordeste 17 Este 0 -- -- 82
2020-03-03 09:00:00 18.4 12 Nordeste 22 Norte 0 -- -- 83
2020-03-03 08:00:00 18.2 18 Nordeste 32 Nordeste 0 -- -- 85
2020-03-03 07:00:00 17.7 13 Nordeste 22 Nordeste 0 -- -- 89
2020-03-03 06:00:00 17 2 Sur 5 Sudoeste 0 -- -- 88
2020-03-03 05:00:00 17.3 4 Sudeste 12 Norte 0 -- -- 86
2020-03-03 04:00:00 17.6 4 Norte 22 Norte 0 -- -- 86
2020-03-03 03:00:00 18 17 Norte 23 Norte 0 -- -- 86
2020-03-03 02:00:00 18.2 14 Norte 22 Norte 0 -- -- 88
2020-03-03 01:00:00 18.1 12 Norte 17 Norte 0 -- -- 87
2020-03-03 00:00:00 18.3 11 Norte 16 Norte 0 -- -- 87